Time;durP1;ratioP1;P1;durP2;ratioP2;P2;SDS_P1;SDS_P2;PMS_P1;PMS_P2;Temp;Humidity;BMP_temperature;BMP_pressure;BME280_temperature;BME280_humidity;BME280_pressure;Samples;Min_cycle;Max_cycle;Signal;HPM_P1;HPM_P2
2023/07/27 00:00:42;;;;;;;7.95;4.13;;;12.60;99.90;;;;;;4998474;28;20045;-70
2023/07/27 00:03:08;;;;;;;8.02;4.45;;;12.50;99.90;;;;;;5001221;28;20037;-70
2023/07/27 00:05:34;;;;;;;9.23;4.65;;;12.50;99.90;;;;;;5001624;28;20528;-70
2023/07/27 00:07:59;;;;;;;7.22;4.35;;;12.50;99.90;;;;;;4990906;28;20049;-70
2023/07/27 00:10:25;;;;;;;9.90;4.65;;;12.50;99.90;;;;;;4997744;28;20115;-71
2023/07/27 00:12:51;;;;;;;10.63;4.93;;;12.70;99.90;;;;;;5005692;28;20468;-70
2023/07/27 00:15:17;;;;;;;10.55;5.05;;;12.50;99.90;;;;;;4992096;28;20057;-71
2023/07/27 00:17:42;;;;;;;12.35;4.82;;;12.50;99.90;;;;;;5001997;28;20128;-70
2023/07/27 00:20:08;;;;;;;9.63;5.03;;;12.50;99.90;;;;;;4994091;28;20221;-71
2023/07/27 00:22:34;;;;;;;9.05;5.22;;;12.50;99.90;;;;;;4995144;28;20130;-70
2023/07/27 00:25:00;;;;;;;10.32;5.15;;;12.50;99.90;;;;;;5005642;28;20189;-71
2023/07/27 00:27:25;;;;;;;11.82;5.20;;;12.50;99.90;;;;;;5003392;28;20042;-70
2023/07/27 00:29:51;;;;;;;9.68;5.30;;;12.50;99.90;;;;;;5004439;28;20083;-70
2023/07/27 00:32:16;;;;;;;10.43;4.90;;;12.60;99.90;;;;;;5004820;28;20042;-70
2023/07/27 00:34:42;;;;;;;8.40;4.65;;;12.50;99.90;;;;;;5004736;28;20041;-70
2023/07/27 00:37:08;;;;;;;10.13;4.95;;;12.50;99.90;;;;;;5012375;28;20057;-70
2023/07/27 00:39:34;;;;;;;8.95;5.10;;;12.60;99.90;;;;;;4992169;28;20054;-70
2023/07/27 00:42:00;;;;;;;8.32;4.80;;;12.60;99.90;;;;;;5004295;28;20046;-70
2023/07/27 00:44:26;;;;;;;8.82;4.85;;;12.50;99.90;;;;;;5004301;28;20057;-70
2023/07/27 00:46:52;;;;;;;12.00;5.03;;;12.70;99.90;;;;;;5001654;28;20057;-70
2023/07/27 00:49:19;;;;;;;9.95;5.53;;;12.60;99.90;;;;;;5001219;28;20105;-70
2023/07/27 00:51:46;;;;;;;7.72;4.55;;;12.50;99.90;;;;;;5009375;28;20540;-70
2023/07/27 00:54:13;;;;;;;7.55;4.63;;;12.50;99.90;;;;;;5001094;28;20038;-70
2023/07/27 00:56:39;;;;;;;10.27;4.68;;;12.70;99.90;;;;;;5000916;28;20058;-70
2023/07/27 00:59:06;;;;;;;10.10;5.00;;;12.60;99.90;;;;;;5003989;28;20034;-70
2023/07/27 01:01:32;;;;;;;10.73;5.75;;;12.60;99.90;;;;;;5004231;28;20084;-70
2023/07/27 01:03:58;;;;;;;9.77;4.68;;;12.60;99.90;;;;;;5002933;28;20046;-70
2023/07/27 01:06:24;;;;;;;7.53;4.43;;;12.60;99.90;;;;;;5000992;28;20057;-70
2023/07/27 01:08:51;;;;;;;8.63;4.97;;;12.60;99.90;;;;;;5001038;28;20121;-70
2023/07/27 01:11:25;;;;;;;9.88;5.18;;;12.60;99.90;;;;;;5004033;28;20164;-70
2023/07/27 01:13:58;;;;;;;10.05;4.97;;;12.60;99.90;;;;;;5012331;28;20042;-70
2023/07/27 01:16:35;;;;;;;7.43;4.28;;;12.60;99.90;;;;;;5004277;28;20034;-70
2023/07/27 01:19:11;;;;;;;7.47;4.93;;;12.60;99.90;;;;;;5004208;28;20374;-70
2023/07/27 01:21:42;;;;;;;9.48;4.78;;;12.60;99.90;;;;;;5006181;28;20120;-70
2023/07/27 01:24:42;;;;;;;8.00;4.97;;;12.60;99.90;;;;;;5003620;28;20280;-70
2023/07/27 01:27:17;;;;;;;7.30;4.40;;;12.60;99.90;;;;;;4999291;28;20409;-70
2023/07/27 01:29:52;;;;;;;10.30;4.88;;;12.60;99.90;;;;;;5004710;28;20034;-70
2023/07/27 01:32:20;;;;;;;9.55;4.95;;;12.60;99.90;;;;;;5003232;28;20107;-70
2023/07/27 01:34:51;;;;;;;7.03;4.25;;;12.60;99.90;;;;;;5000542;28;20056;-70
2023/07/27 01:37:17;;;;;;;6.95;4.60;;;12.70;99.90;;;;;;5000632;28;20085;-70
2023/07/27 01:39:47;;;;;;;7.57;4.22;;;12.60;99.90;;;;;;4993321;28;20096;-70
2023/07/27 01:42:13;;;;;;;7.57;4.45;;;12.60;99.90;;;;;;5006759;28;20057;-70
2023/07/27 01:44:40;;;;;;;7.07;4.30;;;12.60;99.90;;;;;;5003325;28;20042;-70
2023/07/27 01:47:08;;;;;;;7.18;4.13;;;12.60;99.90;;;;;;5003337;28;20068;-70
2023/07/27 01:49:36;;;;;;;6.68;4.15;;;12.90;99.90;;;;;;5002929;28;20045;-70
2023/07/27 01:52:03;;;;;;;9.13;4.50;;;12.60;99.90;;;;;;5005518;28;20452;-70
2023/07/27 01:54:30;;;;;;;10.52;4.60;;;12.70;99.90;;;;;;4993720;28;20485;-70
2023/07/27 01:56:57;;;;;;;6.65;4.38;;;12.80;99.90;;;;;;5002735;28;20044;-70
2023/07/27 01:59:24;;;;;;;6.85;3.75;;;12.70;99.90;;;;;;5003240;28;20049;-70
2023/07/27 02:01:50;;;;;;;8.70;3.90;;;12.60;99.90;;;;;;5006309;28;20034;-70
2023/07/27 02:04:16;;;;;;;7.25;4.10;;;12.60;99.90;;;;;;5010839;28;20061;-70
2023/07/27 02:06:41;;;;;;;11.77;4.43;;;12.70;99.90;;;;;;5003372;28;20073;-69
2023/07/27 02:09:07;;;;;;;7.32;4.22;;;12.60;99.90;;;;;;5009741;28;20034;-70
2023/07/27 02:11:33;;;;;;;8.32;4.10;;;12.90;99.90;;;;;;5005697;28;20054;-70
2023/07/27 02:14:20;;;;;;;7.80;3.92;;;12.70;99.90;;;;;;5000020;28;20189;-70
2023/07/27 02:17:09;;;;;;;6.05;3.83;;;12.70;99.90;;;;;;5008635;28;20041;-70
2023/07/27 02:19:38;;;;;;;8.57;4.25;;;12.70;99.90;;;;;;5004239;28;20088;-70
2023/07/27 02:22:08;;;;;;;7.72;4.25;;;12.70;99.90;;;;;;5010797;28;20046;-69
2023/07/27 02:24:34;;;;;;;10.10;4.32;;;12.70;99.90;;;;;;5007633;28;20077;-70
2023/07/27 02:27:00;;;;;;;7.75;4.38;;;12.80;99.90;;;;;;4999578;28;20046;-70
2023/07/27 02:29:25;;;;;;;7.22;4.35;;;12.70;99.90;;;;;;5007851;28;20053;-70
2023/07/27 02:31:51;;;;;;;8.77;4.40;;;12.70;99.90;;;;;;5010362;28;20042;-70
2023/07/27 02:34:18;;;;;;;8.68;4.05;;;12.80;99.90;;;;;;5002924;28;20049;-69
2023/07/27 02:36:44;;;;;;;7.60;5.10;;;12.70;99.90;;;;;;4984925;28;20096;-70
2023/07/27 02:39:09;;;;;;;11.48;5.05;;;12.80;99.90;;;;;;5010360;28;20497;-70
2023/07/27 02:41:35;;;;;;;7.03;4.38;;;12.80;99.90;;;;;;5009193;28;20045;-70
2023/07/27 02:44:01;;;;;;;9.73;4.32;;;12.80;99.90;;;;;;4989686;28;20054;-70
2023/07/27 02:46:26;;;;;;;9.98;4.50;;;12.80;99.90;;;;;;5007539;28;20120;-70
2023/07/27 02:48:53;;;;;;;7.75;4.57;;;12.90;99.90;;;;;;5002195;28;20519;-70
2023/07/27 02:51:19;;;;;;;7.38;4.63;;;12.80;99.90;;;;;;5010274;28;20058;-70
2023/07/27 02:53:44;;;;;;;9.88;5.00;;;12.90;99.90;;;;;;5009753;28;20044;-70
2023/07/27 02:56:10;;;;;;;11.40;5.20;;;12.90;99.90;;;;;;5006243;28;20050;-71
2023/07/27 02:58:36;;;;;;;10.80;4.82;;;12.90;99.90;;;;;;4999365;28;20069;-70
2023/07/27 03:01:05;;;;;;;7.80;4.60;;;12.90;99.90;;;;;;5003564;28;20053;-70
2023/07/27 03:03:30;;;;;;;11.43;5.05;;;12.90;99.90;;;;;;5004551;28;20077;-70
2023/07/27 03:05:57;;;;;;;8.82;4.57;;;13.00;99.90;;;;;;5000156;28;20055;-70
2023/07/27 03:08:23;;;;;;;8.50;4.43;;;13.00;99.90;;;;;;5010210;28;20487;-70
2023/07/27 03:10:49;;;;;;;7.97;4.80;;;13.00;99.90;;;;;;5010311;28;20046;-70
2023/07/27 03:13:14;;;;;;;9.07;4.75;;;13.10;99.90;;;;;;4998942;28;20409;-70
2023/07/27 03:15:40;;;;;;;8.07;4.47;;;13.00;99.90;;;;;;5004143;28;20046;-70
2023/07/27 03:18:07;;;;;;;8.10;4.70;;;13.10;99.90;;;;;;5002160;28;20046;-70
2023/07/27 03:20:42;;;;;;;8.77;4.70;;;13.10;99.90;;;;;;5002229;28;20045;-70
2023/07/27 03:23:08;;;;;;;9.27;4.70;;;13.10;99.90;;;;;;5007391;28;20129;-70
2023/07/27 03:25:35;;;;;;;9.57;5.07;;;13.20;99.90;;;;;;5002197;28;20157;-70
2023/07/27 03:28:02;;;;;;;9.30;4.85;;;13.10;99.90;;;;;;5001614;28;20444;-70
2023/07/27 03:30:28;;;;;;;8.43;4.85;;;13.10;99.90;;;;;;5001778;28;20030;-70
2023/07/27 03:32:54;;;;;;;9.95;5.22;;;13.10;99.90;;;;;;5004347;28;20046;-70
2023/07/27 03:35:19;;;;;;;7.18;4.57;;;13.20;99.90;;;;;;4999129;28;20047;-70
2023/07/27 03:37:45;;;;;;;7.97;4.72;;;13.20;99.90;;;;;;5005411;28;20053;-70
2023/07/27 03:40:11;;;;;;;7.38;4.85;;;13.20;99.90;;;;;;5009218;28;20481;-70
2023/07/27 03:42:36;;;;;;;11.05;6.00;;;13.20;99.90;;;;;;4999554;28;20073;-70
2023/07/27 03:45:03;;;;;;;8.75;5.28;;;13.20;99.90;;;;;;4997996;28;20589;-70
2023/07/27 03:47:28;;;;;;;7.82;5.22;;;13.20;99.90;;;;;;5006429;28;20079;-70
2023/07/27 03:49:54;;;;;;;13.57;6.13;;;13.20;99.90;;;;;;5000217;28;20046;-70
2023/07/27 03:52:20;;;;;;;10.68;5.88;;;13.30;99.90;;;;;;5013157;28;20056;-70
2023/07/27 03:54:45;;;;;;;8.52;5.80;;;13.30;99.90;;;;;;5005252;28;20038;-71
2023/07/27 03:57:11;;;;;;;10.20;5.70;;;13.30;99.90;;;;;;5005355;28;20598;-70
2023/07/27 03:59:36;;;;;;;9.15;5.60;;;13.30;99.90;;;;;;5005444;28;20133;-70
2023/07/27 04:02:02;;;;;;;9.73;5.90;;;13.40;99.90;;;;;;5005208;28;20050;-70
2023/07/27 04:04:28;;;;;;;9.90;6.05;;;13.30;99.90;;;;;;4995939;28;20349;-70
2023/07/27 04:06:53;;;;;;;9.05;5.82;;;13.30;99.90;;;;;;5005468;28;20038;-71
2023/07/27 04:09:19;;;;;;;9.68;6.35;;;13.30;99.90;;;;;;5009850;28;20125;-70
2023/07/27 04:11:44;;;;;;;10.07;5.63;;;13.30;99.90;;;;;;5009025;28;20053;-70
2023/07/27 04:14:10;;;;;;;11.30;6.13;;;13.30;99.90;;;;;;5004920;28;20038;-70
2023/07/27 04:16:36;;;;;;;9.65;6.15;;;13.30;99.90;;;;;;5011102;28;20034;-69
2023/07/27 04:19:02;;;;;;;12.05;6.07;;;13.30;99.90;;;;;;5012975;28;20101;-70
2023/07/27 04:21:27;;;;;;;13.18;6.47;;;13.40;99.90;;;;;;5005412;28;20033;-70
2023/07/27 04:23:54;;;;;;;13.05;7.90;;;13.40;99.90;;;;;;5006414;28;20337;-70
2023/07/27 04:26:19;;;;;;;13.48;7.72;;;13.30;99.90;;;;;;5003229;28;20517;-70
2023/07/27 04:28:45;;;;;;;11.73;7.20;;;13.40;99.90;;;;;;5004523;28;20074;-70
2023/07/27 04:31:11;;;;;;;13.00;7.80;;;13.40;99.90;;;;;;5004790;28;20038;-69
2023/07/27 04:33:36;;;;;;;13.73;7.20;;;13.40;99.90;;;;;;5004669;28;20045;-70
2023/07/27 04:36:02;;;;;;;16.85;8.60;;;13.40;99.90;;;;;;5008667;28;20079;-71
2023/07/27 04:38:29;;;;;;;15.82;8.43;;;13.40;99.90;;;;;;4994682;28;20096;-70
2023/07/27 04:40:55;;;;;;;15.48;8.07;;;13.40;99.90;;;;;;5012988;28;20204;-71
2023/07/27 04:43:20;;;;;;;13.93;8.85;;;13.60;99.90;;;;;;5004689;28;20133;-70
2023/07/27 04:45:46;;;;;;;14.05;7.68;;;13.40;99.90;;;;;;5003792;28;20041;-71
2023/07/27 04:48:12;;;;;;;15.20;8.75;;;13.40;99.90;;;;;;5012180;28;20081;-71
2023/07/27 04:50:37;;;;;;;12.07;8.00;;;13.50;99.90;;;;;;5011512;28;20085;-71
2023/07/27 04:53:03;;;;;;;12.15;7.65;;;13.50;99.90;;;;;;5004931;28;20507;-71
2023/07/27 04:55:28;;;;;;;12.32;7.93;;;13.50;99.90;;;;;;5012066;28;20413;-70
2023/07/27 04:57:54;;;;;;;14.18;8.73;;;13.50;99.90;;;;;;5010117;28;20707;-71
2023/07/27 05:00:20;;;;;;;12.07;7.65;;;13.40;99.90;;;;;;5000978;28;20050;-71
2023/07/27 05:02:45;;;;;;;15.68;8.57;;;13.50;99.90;;;;;;5009041;28;20034;-71
2023/07/27 05:05:11;;;;;;;16.02;8.63;;;13.50;99.90;;;;;;5004109;28;20045;-71
2023/07/27 05:07:37;;;;;;;13.32;7.80;;;13.50;99.90;;;;;;5008643;28;20535;-71
2023/07/27 05:10:02;;;;;;;12.35;8.15;;;13.50;99.90;;;;;;5012043;28;20548;-71
2023/07/27 05:12:28;;;;;;;11.90;8.10;;;13.60;99.90;;;;;;5003927;28;20587;-70
2023/07/27 05:14:54;;;;;;;13.38;8.15;;;13.60;99.90;;;;;;5011710;28;20111;-71
2023/07/27 05:17:20;;;;;;;13.52;8.32;;;13.70;99.90;;;;;;5011700;28;20117;-69
2023/07/27 05:19:45;;;;;;;12.93;8.18;;;13.60;99.90;;;;;;4990911;28;20042;-71
2023/07/27 05:22:11;;;;;;;15.60;8.13;;;13.60;99.90;;;;;;5001801;28;20779;-71
2023/07/27 05:24:38;;;;;;;14.52;7.20;;;13.60;99.90;;;;;;5008381;28;20049;-71
2023/07/27 05:27:04;;;;;;;13.82;7.32;;;13.80;99.90;;;;;;5004430;28;20049;-71
2023/07/27 05:29:30;;;;;;;13.75;7.80;;;13.60;99.90;;;;;;5011216;28;20116;-71
2023/07/27 05:31:55;;;;;;;13.45;7.95;;;13.70;99.90;;;;;;5003780;28;20516;-71
2023/07/27 05:34:21;;;;;;;11.07;6.97;;;13.70;99.90;;;;;;4994254;28;20057;-70
2023/07/27 05:36:46;;;;;;;13.13;7.95;;;13.70;99.90;;;;;;5004015;28;20050;-71
2023/07/27 05:39:12;;;;;;;14.32;7.88;;;13.70;99.90;;;;;;5006205;28;20126;-70
2023/07/27 05:41:38;;;;;;;11.35;6.18;;;13.70;99.90;;;;;;5009412;28;20081;-71
2023/07/27 05:44:04;;;;;;;12.13;7.13;;;13.70;99.90;;;;;;4993806;28;20046;-70
2023/07/27 05:46:30;;;;;;;14.55;7.45;;;13.70;99.90;;;;;;5002726;28;20046;-70
2023/07/27 05:48:55;;;;;;;12.95;7.40;;;13.80;99.90;;;;;;5002613;28;20457;-70
2023/07/27 05:51:21;;;;;;;12.02;7.00;;;13.80;99.90;;;;;;5004659;28;20050;-70
2023/07/27 05:53:47;;;;;;;9.15;5.93;;;13.80;99.90;;;;;;5008290;28;20042;-70
2023/07/27 05:56:13;;;;;;;10.00;6.07;;;13.80;99.90;;;;;;5003401;28;20520;-70
2023/07/27 05:58:39;;;;;;;10.30;6.60;;;13.90;99.90;;;;;;5003064;28;20038;-70
2023/07/27 06:01:05;;;;;;;11.10;6.28;;;13.90;99.90;;;;;;5002862;28;20378;-70
2023/07/27 06:03:31;;;;;;;11.00;6.07;;;13.90;99.90;;;;;;5007121;28;20045;-70
2023/07/27 06:05:57;;;;;;;8.68;5.70;;;13.90;99.90;;;;;;5009653;28;20088;-70
2023/07/27 06:08:23;;;;;;;10.45;6.15;;;14.00;99.90;;;;;;5002214;28;20042;-70
2023/07/27 06:10:58;;;;;;;10.50;5.55;;;14.00;99.90;;;;;;4993790;28;20042;-70
2023/07/27 06:13:23;;;;;;;9.15;5.63;;;14.10;99.90;;;;;;5010762;28;20049;-70
2023/07/27 06:15:49;;;;;;;10.65;6.25;;;14.10;99.90;;;;;;5010853;28;20374;-70
2023/07/27 06:18:15;;;;;;;9.13;5.88;;;14.20;99.90;;;;;;5000022;28;20076;-70
2023/07/27 06:20:41;;;;;;;8.98;6.03;;;14.20;99.90;;;;;;4999450;28;20043;-70
2023/07/27 06:23:06;;;;;;;9.68;5.80;;;14.30;99.90;;;;;;5000140;28;20054;-70
2023/07/27 06:25:32;;;;;;;9.23;5.95;;;14.40;99.90;;;;;;5008180;28;20057;-70
2023/07/27 06:27:57;;;;;;;8.10;5.60;;;14.40;99.90;;;;;;5010939;28;20038;-70
2023/07/27 06:30:23;;;;;;;8.88;6.30;;;14.50;99.90;;;;;;5002743;28;20045;-70
2023/07/27 06:32:49;;;;;;;8.95;6.03;;;14.50;99.90;;;;;;5002065;28;20085;-70
2023/07/27 06:35:15;;;;;;;9.68;6.10;;;14.60;99.90;;;;;;5007055;28;20078;-70
2023/07/27 06:37:41;;;;;;;10.45;6.20;;;14.60;99.90;;;;;;5011222;28;20041;-70
2023/07/27 06:40:07;;;;;;;9.70;6.13;;;14.60;99.90;;;;;;5010405;28;20115;-70
2023/07/27 06:42:33;;;;;;;9.60;6.60;;;14.70;99.90;;;;;;5007108;28;20048;-70
2023/07/27 06:44:58;;;;;;;8.20;6.22;;;14.70;99.90;;;;;;5010266;28;20054;-70
2023/07/27 06:47:24;;;;;;;10.00;5.70;;;14.70;99.90;;;;;;5009590;28;20385;-69
2023/07/27 06:49:50;;;;;;;10.95;5.93;;;14.80;99.90;;;;;;5002584;28;20058;-70
2023/07/27 06:52:15;;;;;;;8.93;5.20;;;14.80;99.90;;;;;;5010638;28;20062;-71
2023/07/27 06:54:41;;;;;;;10.15;5.22;;;14.90;99.90;;;;;;5008022;28;20044;-71
2023/07/27 06:57:09;;;;;;;9.40;5.10;;;15.00;99.90;;;;;;5010172;28;20042;-70
2023/07/27 06:59:36;;;;;;;10.38;5.63;;;15.00;99.90;;;;;;5002652;28;20607;-70
2023/07/27 07:02:02;;;;;;;10.30;5.00;;;15.00;99.90;;;;;;5006978;28;20069;-70
2023/07/27 07:04:30;;;;;;;9.10;4.75;;;15.00;99.90;;;;;;5004726;28;20505;-70
2023/07/27 07:06:55;;;;;;;8.98;4.85;;;15.00;99.90;;;;;;5002110;28;20049;-69
2023/07/27 07:09:21;;;;;;;8.18;4.63;;;15.00;99.90;;;;;;5006162;28;20426;-70
2023/07/27 07:11:48;;;;;;;6.43;4.35;;;15.00;99.90;;;;;;4999115;28;20486;-70
2023/07/27 07:14:14;;;;;;;8.63;4.85;;;15.00;99.90;;;;;;5001523;28;20053;-70
2023/07/27 07:16:40;;;;;;;7.07;4.63;;;15.00;99.90;;;;;;5001908;28;20057;-70
2023/07/27 07:19:05;;;;;;;9.85;4.80;;;15.10;99.90;;;;;;5006080;28;20061;-70
2023/07/27 07:21:31;;;;;;;7.43;4.38;;;15.00;99.90;;;;;;5009508;28;20073;-70
2023/07/27 07:23:56;;;;;;;6.70;4.63;;;15.00;99.90;;;;;;5000851;28;20041;-70
2023/07/27 07:26:22;;;;;;;7.63;4.65;;;15.10;99.90;;;;;;4999293;28;20045;-71
2023/07/27 07:28:48;;;;;;;5.90;3.97;;;15.10;99.90;;;;;;5003337;28;20077;-70
2023/07/27 07:31:14;;;;;;;7.05;4.55;;;15.20;99.90;;;;;;5009393;28;20037;-70
2023/07/27 07:33:39;;;;;;;6.30;4.13;;;15.20;99.90;;;;;;4998457;28;20121;-69
2023/07/27 07:36:05;;;;;;;9.65;4.68;;;15.20;99.90;;;;;;4998670;28;20045;-72
2023/07/27 07:38:31;;;;;;;7.50;4.88;;;15.20;99.90;;;;;;5000677;28;20585;-70
2023/07/27 07:40:57;;;;;;;7.03;4.15;;;15.40;99.90;;;;;;5009689;28;20088;-70
2023/07/27 07:43:23;;;;;;;7.65;4.15;;;15.40;99.90;;;;;;5009806;28;20441;-69
2023/07/27 07:45:48;;;;;;;5.93;3.67;;;15.40;99.90;;;;;;5001861;28;20041;-72
2023/07/27 07:48:14;;;;;;;6.18;3.78;;;15.50;99.90;;;;;;5001553;28;20428;-70
2023/07/27 07:50:40;;;;;;;6.38;4.30;;;15.50;99.90;;;;;;5005933;28;20066;-70
2023/07/27 07:53:06;;;;;;;6.40;3.47;;;15.60;99.90;;;;;;5004797;28;20062;-70
2023/07/27 07:55:36;;;;;;;5.50;3.60;;;15.80;99.90;;;;;;5004948;28;20042;-70
2023/07/27 07:58:01;;;;;;;6.85;3.42;;;15.90;99.90;;;;;;5001883;28;20052;-70
2023/07/27 08:00:27;;;;;;;5.78;3.30;;;15.90;99.90;;;;;;5001868;28;20121;-71
2023/07/27 08:02:53;;;;;;;4.55;3.33;;;16.00;99.90;;;;;;4990673;28;20049;-71
2023/07/27 08:05:18;;;;;;;4.90;3.13;;;16.10;99.90;;;;;;4998908;28;20046;-70
2023/07/27 08:07:44;;;;;;;4.18;2.70;;;16.10;99.90;;;;;;4998674;28;20035;-70
2023/07/27 08:10:10;;;;;;;4.57;2.80;;;16.10;99.90;;;;;;4992275;28;20099;-70
2023/07/27 08:12:36;;;;;;;3.72;2.63;;;16.10;99.90;;;;;;5002087;28;20148;-71
2023/07/27 08:15:02;;;;;;;3.28;2.17;;;16.10;99.90;;;;;;5000835;28;20062;-70
2023/07/27 08:17:29;;;;;;;5.35;2.45;;;16.10;99.90;;;;;;4998923;28;20050;-70
2023/07/27 08:19:55;;;;;;;4.15;2.75;;;16.20;99.90;;;;;;5001782;28;20504;-70
2023/07/27 08:22:20;;;;;;;8.60;2.72;;;16.20;99.90;;;;;;5007272;28;20051;-70
2023/07/27 08:24:46;;;;;;;4.65;3.20;;;16.20;99.90;;;;;;4998868;28;20043;-71
2023/07/27 08:27:11;;;;;;;3.70;2.47;;;16.20;99.90;;;;;;5007951;28;20042;-71
2023/07/27 08:29:37;;;;;;;4.65;2.63;;;16.20;99.90;;;;;;5006092;28;20501;-71
2023/07/27 08:32:03;;;;;;;3.85;2.22;;;16.20;99.90;;;;;;4998591;28;20072;-70
2023/07/27 08:34:30;;;;;;;5.20;2.40;;;16.20;99.90;;;;;;5001256;28;20069;-71
2023/07/27 08:36:56;;;;;;;5.90;2.25;;;16.20;99.90;;;;;;5005316;28;20085;-71
2023/07/27 08:39:22;;;;;;;4.07;2.60;;;16.20;99.90;;;;;;5004237;28;20149;-70
2023/07/27 08:41:47;;;;;;;4.38;2.40;;;16.20;99.90;;;;;;5007668;28;20405;-70
2023/07/27 08:44:14;;;;;;;3.53;2.28;;;16.20;99.90;;;;;;5005327;28;20053;-70
2023/07/27 08:46:43;;;;;;;4.22;2.45;;;16.20;99.90;;;;;;5005172;28;20053;-70
2023/07/27 08:49:13;;;;;;;4.47;2.20;;;16.20;99.90;;;;;;5013063;28;20061;-70
2023/07/27 08:51:41;;;;;;;4.03;2.45;;;16.20;99.90;;;;;;5004621;28;20054;-70
2023/07/27 08:54:07;;;;;;;4.07;2.70;;;16.20;99.90;;;;;;5004778;28;20100;-70
2023/07/27 08:56:32;;;;;;;4.07;2.50;;;16.30;99.90;;;;;;5004912;28;20049;-70
2023/07/27 08:58:58;;;;;;;4.60;2.65;;;16.30;99.90;;;;;;5001792;28;20050;-70
2023/07/27 09:01:24;;;;;;;3.55;2.35;;;16.30;99.90;;;;;;5010711;28;20120;-70
2023/07/27 09:03:49;;;;;;;4.10;2.30;;;16.50;99.90;;;;;;5011985;28;20129;-70
2023/07/27 09:06:16;;;;;;;3.67;1.80;;;16.50;99.90;;;;;;5005670;28;20042;-70
2023/07/27 09:08:42;;;;;;;3.60;2.30;;;16.50;99.90;;;;;;4995114;28;20057;-70
2023/07/27 09:11:10;;;;;;;2.85;1.98;;;16.60;99.90;;;;;;5001966;28;20049;-70
2023/07/27 09:13:37;;;;;;;6.72;1.67;;;16.70;99.90;;;;;;5005606;28;20049;-69
2023/07/27 09:16:03;;;;;;;2.28;1.50;;;16.80;99.90;;;;;;5012545;28;20054;-70
2023/07/27 09:18:35;;;;;;;5.13;1.50;;;16.80;99.90;;;;;;5004322;28;20050;-71
2023/07/27 09:21:07;;;;;;;3.95;1.27;;;16.90;99.90;;;;;;5003876;28;20050;-70
2023/07/27 09:23:33;;;;;;;2.30;1.00;;;16.90;99.90;;;;;;5001392;28;20489;-70
2023/07/27 09:25:58;;;;;;;1.95;0.90;;;17.10;99.90;;;;;;5001496;28;20065;-71
2023/07/27 09:28:26;;;;;;;1.58;1.00;;;16.90;99.90;;;;;;5003930;28;20053;-71
2023/07/27 09:30:57;;;;;;;1.50;0.90;;;16.90;99.90;;;;;;5003965;28;20042;-70
2023/07/27 09:33:22;;;;;;;1.73;0.77;;;17.00;99.90;;;;;;5002460;28;20050;-71
2023/07/27 09:35:49;;;;;;;1.42;0.90;;;17.00;99.90;;;;;;5004006;28;20740;-70
2023/07/27 09:38:15;;;;;;;1.45;0.82;;;16.90;99.90;;;;;;5003229;28;20058;-71
2023/07/27 09:40:41;;;;;;;1.17;0.90;;;17.00;99.90;;;;;;5008657;28;20158;-70
2023/07/27 09:43:07;;;;;;;1.15;0.80;;;16.90;99.90;;;;;;5000485;28;20050;-71
2023/07/27 09:45:37;;;;;;;3.55;0.90;;;16.90;99.90;;;;;;4992078;28;20054;-71
2023/07/27 09:48:03;;;;;;;1.45;1.00;;;16.90;99.90;;;;;;5002104;28;20120;-71
2023/07/27 09:50:32;;;;;;;1.77;0.98;;;16.90;99.90;;;;;;5002662;28;20050;-71
2023/07/27 09:52:59;;;;;;;1.55;0.82;;;16.90;99.90;;;;;;4990793;28;20081;-71
2023/07/27 09:55:25;;;;;;;2.08;1.10;;;16.80;99.90;;;;;;5000483;28;20042;-71
2023/07/27 09:57:51;;;;;;;2.05;1.20;;;16.80;99.90;;;;;;5002319;28;20034;-71
2023/07/27 10:00:17;;;;;;;2.22;1.00;;;16.90;99.90;;;;;;4993523;28;20046;-71
2023/07/27 10:02:43;;;;;;;1.77;1.00;;;16.90;99.90;;;;;;5002304;28;20044;-70
2023/07/27 10:05:09;;;;;;;1.48;0.88;;;16.90;99.90;;;;;;4990277;28;20418;-71
2023/07/27 10:07:35;;;;;;;1.60;0.93;;;16.90;99.90;;;;;;5000166;28;20088;-71
2023/07/27 10:10:33;;;;;;;2.22;1.30;;;16.90;99.90;;;;;;5010998;28;20049;-72
2023/07/27 10:13:30;;;;;;;1.90;1.08;;;16.90;99.90;;;;;;4950118;29;20518;-71
2023/07/27 10:15:56;;;;;;;3.50;1.13;;;16.90;99.90;;;;;;4950105;29;20648;-71
2023/07/27 10:18:27;;;;;;;1.90;1.30;;;17.00;99.90;;;;;;4934503;29;20047;-71
2023/07/27 10:21:16;;;;;;;1.60;1.10;;;16.90;99.90;;;;;;4950549;29;20078;-71
2023/07/27 10:24:01;;;;;;;1.83;1.23;;;17.00;99.90;;;;;;4943947;29;20048;-72
2023/07/27 10:26:42;;;;;;;2.80;1.55;;;17.10;99.90;;;;;;4933283;29;20070;-71
2023/07/27 10:29:19;;;;;;;2.05;1.35;;;17.10;99.90;;;;;;4949897;29;20502;-71
2023/07/27 10:31:59;;;;;;;1.70;1.25;;;17.20;99.90;;;;;;4949818;29;20051;-70
2023/07/27 10:34:26;;;;;;;2.35;1.70;;;17.20;99.90;;;;;;4949981;29;20049;-72
2023/07/27 10:36:59;;;;;;;2.17;1.27;;;17.20;99.90;;;;;;4948607;29;20490;-71
2023/07/27 10:39:28;;;;;;;1.90;1.30;;;17.20;99.90;;;;;;4950050;29;20090;-70
2023/07/27 10:42:07;;;;;;;2.42;1.55;;;17.30;99.90;;;;;;4949816;29;20051;-72
2023/07/27 10:44:49;;;;;;;2.20;1.38;;;17.30;99.90;;;;;;4949713;29;20126;-71
2023/07/27 10:47:22;;;;;;;2.38;1.38;;;17.30;99.90;;;;;;4949759;29;20146;-71
2023/07/27 10:49:52;;;;;;;2.55;1.45;;;17.40;99.90;;;;;;4999305;28;20061;-71
2023/07/27 10:52:23;;;;;;;2.25;1.73;;;17.40;99.90;;;;;;4998943;28;20086;-71
2023/07/27 10:54:51;;;;;;;2.70;2.10;;;17.40;99.90;;;;;;5001443;28;20042;-71
2023/07/27 10:57:18;;;;;;;2.45;1.88;;;17.40;99.90;;;;;;5002232;28;20081;-71
2023/07/27 10:59:46;;;;;;;3.58;2.30;;;17.40;99.90;;;;;;5000867;28;20091;-71
2023/07/27 11:02:18;;;;;;;2.75;2.17;;;17.40;99.90;;;;;;4998944;28;20038;-70
2023/07/27 11:04:45;;;;;;;3.20;2.40;;;17.40;99.90;;;;;;5000603;28;20061;-70
2023/07/27 11:07:11;;;;;;;3.03;2.47;;;17.40;99.90;;;;;;5002148;28;20492;-73
2023/07/27 11:09:38;;;;;;;2.60;2.22;;;17.40;99.90;;;;;;5002014;28;20044;-72
2023/07/27 11:12:04;;;;;;;3.67;2.60;;;17.40;99.90;;;;;;5001558;28;20172;-71
2023/07/27 11:14:30;;;;;;;3.42;2.70;;;17.40;99.90;;;;;;5004944;28;20053;-71
2023/07/27 11:16:56;;;;;;;4.28;2.78;;;17.50;99.90;;;;;;4999240;28;20516;-70
2023/07/27 11:19:24;;;;;;;3.95;3.22;;;17.50;99.90;;;;;;5002305;28;20046;-70
2023/07/27 11:21:51;;;;;;;3.60;2.90;;;17.40;99.90;;;;;;5001811;28;20524;-71
2023/07/27 11:24:18;;;;;;;4.07;3.05;;;17.40;99.90;;;;;;5000951;28;20042;-71
2023/07/27 11:26:44;;;;;;;3.85;2.78;;;17.50;99.90;;;;;;5009731;28;20041;-70
2023/07/27 11:29:10;;;;;;;4.28;2.80;;;17.50;99.90;;;;;;5001612;28;20092;-70
2023/07/27 11:31:36;;;;;;;3.65;3.08;;;17.60;99.90;;;;;;5001504;28;20477;-71
2023/07/27 11:34:03;;;;;;;5.63;2.95;;;17.70;99.90;;;;;;5001557;28;20046;-70
2023/07/27 11:36:32;;;;;;;3.20;2.47;;;17.70;99.90;;;;;;5006903;28;20052;-70
2023/07/27 11:38:59;;;;;;;4.00;2.92;;;17.70;99.90;;;;;;4991878;28;20049;-70
2023/07/27 11:41:26;;;;;;;3.33;2.38;;;17.80;99.90;;;;;;5001306;28;20045;-70
2023/07/27 11:43:54;;;;;;;2.85;2.40;;;17.90;99.90;;;;;;5001569;28;20116;-70
2023/07/27 11:46:20;;;;;;;3.65;2.05;;;17.90;99.90;;;;;;5001492;28;20100;-71
2023/07/27 11:48:48;;;;;;;3.97;1.90;;;17.90;99.90;;;;;;4998440;28;20086;-70
2023/07/27 11:51:14;;;;;;;4.03;2.13;;;17.90;99.90;;;;;;4998152;28;20057;-70
2023/07/27 11:53:43;;;;;;;3.55;2.20;;;18.00;99.90;;;;;;5006270;28;20125;-70
2023/07/27 11:56:09;;;;;;;2.63;2.05;;;18.10;99.90;;;;;;4998476;28;20093;-71
2023/07/27 11:58:36;;;;;;;2.85;1.90;;;18.10;99.90;;;;;;4988511;28;20130;-70
2023/07/27 12:01:03;;;;;;;2.63;2.10;;;18.10;99.90;;;;;;5001391;28;20067;-71
2023/07/27 12:03:33;;;;;;;2.38;1.88;;;18.10;99.90;;;;;;5001974;28;20440;-70
2023/07/27 12:06:02;;;;;;;2.92;1.63;;;18.20;99.90;;;;;;5000030;28;20054;-70
2023/07/27 12:08:30;;;;;;;2.40;1.70;;;18.30;99.90;;;;;;4986549;28;20125;-70
2023/07/27 12:10:57;;;;;;;2.58;1.60;;;18.40;99.90;;;;;;5009885;28;20104;-70
2023/07/27 12:13:24;;;;;;;2.15;1.58;;;18.50;99.90;;;;;;5001947;28;20046;-70
2023/07/27 12:16:06;;;;;;;1.88;1.60;;;18.60;99.90;;;;;;5001874;28;20046;-70
2023/07/27 12:18:32;;;;;;;1.90;1.70;;;18.60;99.90;;;;;;5007262;28;20034;-70
2023/07/27 12:20:58;;;;;;;1.67;1.27;;;18.70;99.90;;;;;;5004913;28;20167;-70
2023/07/27 12:23:25;;;;;;;1.50;1.27;;;18.80;99.90;;;;;;5001627;28;20042;-70
2023/07/27 12:25:52;;;;;;;2.33;1.30;;;18.90;99.90;;;;;;5001649;28;20093;-71
2023/07/27 12:28:18;;;;;;;1.45;1.20;;;19.00;99.90;;;;;;5003815;28;20057;-70
2023/07/27 12:30:44;;;;;;;1.92;1.30;;;19.00;99.90;;;;;;5005088;28;20507;-69
2023/07/27 12:33:11;;;;;;;1.48;1.27;;;19.00;99.90;;;;;;5004906;28;20050;-71
2023/07/27 12:35:37;;;;;;;1.50;0.90;;;19.00;99.90;;;;;;5001252;28;20379;-70
2023/07/27 12:38:03;;;;;;;1.38;1.00;;;19.00;99.90;;;;;;5008434;28;20107;-71
2023/07/27 12:40:28;;;;;;;1.33;1.00;;;19.10;99.90;;;;;;5002882;28;20489;-71
2023/07/27 12:42:55;;;;;;;1.60;1.13;;;19.10;99.90;;;;;;5001458;28;20057;-70
2023/07/27 12:45:21;;;;;;;1.42;1.23;;;19.10;99.90;;;;;;5001778;28;20050;-72